createdAt,value
2023-11-18T00:00:35.301Z,9.11
2023-11-18T00:03:03.593Z,10.65
2023-11-18T00:05:31.373Z,10.93
2023-11-18T00:07:59.785Z,10.44
2023-11-18T00:10:27.737Z,9.89
2023-11-18T00:12:57.503Z,10.39
2023-11-18T00:15:25.154Z,9.92
2023-11-18T00:17:54.590Z,10.34
2023-11-18T00:20:25.140Z,9.20
2023-11-18T00:22:54.109Z,9.86
2023-11-18T00:25:22.523Z,9.23
2023-11-18T00:27:50.215Z,8.91
2023-11-18T00:30:20.545Z,9.53
2023-11-18T00:32:49.125Z,9.22
2023-11-18T00:35:17.551Z,10.67
2023-11-18T00:37:45.357Z,12.01
2023-11-18T00:40:13.562Z,11.09
2023-11-18T00:42:41.447Z,10.88
2023-11-18T00:45:09.844Z,10.94
2023-11-18T00:47:39.640Z,9.76
2023-11-18T00:50:09.599Z,10.22
2023-11-18T00:52:39.909Z,10.64
2023-11-18T00:55:09.918Z,9.89
2023-11-18T00:57:38.956Z,9.06
2023-11-18T01:00:08.547Z,10.79
2023-11-18T01:02:36.262Z,10.55
2023-11-18T01:05:05.939Z,10.62
2023-11-18T01:07:34.751Z,11.75
2023-11-18T01:10:03.589Z,11.43
2023-11-18T01:12:31.376Z,10.88
2023-11-18T01:14:59.361Z,11.56
2023-11-18T01:17:27.601Z,10.68
2023-11-18T01:19:55.377Z,11.03
2023-11-18T01:22:25.095Z,12.15
2023-11-18T01:24:53.582Z,12.40
2023-11-18T01:27:22.138Z,12.47
2023-11-18T01:29:49.859Z,11.94
2023-11-18T01:32:18.714Z,11.28
2023-11-18T01:34:51.280Z,11.08
2023-11-18T01:37:23.615Z,12.17
2023-11-18T01:39:52.696Z,11.41
2023-11-18T01:42:20.642Z,11.35
2023-11-18T01:44:48.489Z,12.32
2023-11-18T01:47:17.628Z,12.26
2023-11-18T01:49:45.638Z,11.17
2023-11-18T01:52:13.543Z,10.95
2023-11-18T01:54:46.643Z,11.55
2023-11-18T01:57:17.180Z,12.30
2023-11-18T01:59:45.635Z,12.94
2023-11-18T02:02:14.293Z,11.28
2023-11-18T02:04:42.677Z,12.85
2023-11-18T02:07:10.658Z,11.80
2023-11-18T02:09:38.728Z,10.36
2023-11-18T02:12:12.652Z,10.10
2023-11-18T02:14:42.273Z,11.34
2023-11-18T02:17:12.667Z,11.41
2023-11-18T02:19:41.434Z,11.12
2023-11-18T02:22:09.677Z,11.21
2023-11-18T02:24:38.665Z,11.33
2023-11-18T02:27:08.701Z,11.38
2023-11-18T02:29:38.426Z,11.41
2023-11-18T02:32:13.583Z,11.75
2023-11-18T02:34:44.733Z,12.39
2023-11-18T02:37:13.980Z,11.29
2023-11-18T02:39:43.885Z,12.80
2023-11-18T02:42:14.902Z,12.99
2023-11-18T02:44:43.685Z,10.56
2023-11-18T02:47:11.425Z,10.09
2023-11-18T02:49:40.087Z,11.45
2023-11-18T02:52:11.774Z,12.30
2023-11-18T02:54:39.512Z,12.26
2023-11-18T02:57:07.190Z,13.11
2023-11-18T02:59:36.713Z,11.88
2023-11-18T03:02:04.691Z,11.69
2023-11-18T03:04:32.723Z,12.54
2023-11-18T03:07:01.061Z,12.34
2023-11-18T03:09:29.729Z,10.81
2023-11-18T03:12:00.589Z,12.60
2023-11-18T03:14:29.770Z,13.64
2023-11-18T03:16:59.798Z,12.06
2023-11-18T03:19:27.568Z,13.38
2023-11-18T03:21:55.740Z,13.51
2023-11-18T03:24:23.417Z,12.55
2023-11-18T03:26:52.752Z,10.89
2023-11-18T03:29:20.382Z,10.98
2023-11-18T03:31:49.836Z,11.82
2023-11-18T03:34:20.944Z,12.49
2023-11-18T03:36:49.886Z,11.81
2023-11-18T03:39:17.587Z,11.80
2023-11-18T03:41:46.755Z,11.07
2023-11-18T03:44:14.441Z,11.66
2023-11-18T03:46:42.789Z,11.47
2023-11-18T03:49:10.680Z,11.52
2023-11-18T03:51:39.773Z,11.68
2023-11-18T03:54:09.608Z,12.92
2023-11-18T03:56:37.755Z,12.74
2023-11-18T03:59:06.119Z,12.73
2023-11-18T04:01:34.850Z,12.48
2023-11-18T04:04:02.659Z,11.85
2023-11-18T04:06:30.545Z,10.67
2023-11-18T04:09:00.763Z,11.66
2023-11-18T04:11:28.416Z,10.27
2023-11-18T04:13:56.836Z,10.54
2023-11-18T04:16:24.582Z,10.02
2023-11-18T04:18:52.822Z,10.66
2023-11-18T04:21:20.500Z,11.36
2023-11-18T04:23:48.813Z,11.59
2023-11-18T04:26:18.106Z,11.92
2023-11-18T04:28:45.831Z,11.10
2023-11-18T04:31:14.100Z,10.88
2023-11-18T04:33:42.811Z,11.35
2023-11-18T04:38:53.907Z,11.14
2023-11-18T04:41:24.263Z,10.16
2023-11-18T04:43:52.886Z,10.00
2023-11-18T04:46:20.637Z,11.91
2023-11-18T04:48:48.933Z,11.47
2023-11-18T04:51:18.524Z,11.55
2023-11-18T04:53:46.820Z,10.32
2023-11-18T04:56:17.714Z,10.83
2023-11-18T04:58:48.952Z,11.38
2023-11-18T05:01:16.847Z,11.45
2023-11-18T05:03:44.963Z,11.77
2023-11-18T05:06:12.668Z,11.77
2023-11-18T05:08:40.947Z,11.69
2023-11-18T05:11:09.093Z,12.00
2023-11-18T05:13:36.786Z,11.93
2023-11-18T05:16:05.889Z,12.65
2023-11-18T05:18:36.815Z,11.82
2023-11-18T05:21:06.942Z,11.16
2023-11-18T05:23:36.133Z,12.05
2023-11-18T05:26:05.932Z,11.70
2023-11-18T05:28:34.188Z,12.03
2023-11-18T05:31:04.091Z,13.12
2023-11-18T05:33:35.516Z,12.23
2023-11-18T05:36:07.010Z,12.23
2023-11-18T05:38:36.141Z,11.44
2023-11-18T05:41:05.169Z,11.86
2023-11-18T05:43:41.113Z,12.07
2023-11-18T05:46:22.246Z,12.65
2023-11-18T05:48:51.701Z,12.17
2023-11-18T05:51:23.223Z,12.60
2023-11-18T05:53:51.993Z,12.98
2023-11-18T05:56:29.929Z,13.86
2023-11-18T05:58:57.757Z,13.06
2023-11-18T06:01:28.392Z,13.09
2023-11-18T06:03:58.983Z,13.64
2023-11-18T06:06:27.107Z,13.63
2023-11-18T06:08:55.958Z,13.11
2023-11-18T06:11:24.349Z,12.63
2023-11-18T06:13:54.159Z,12.78
2023-11-18T06:16:23.182Z,13.58
2023-11-18T06:18:52.972Z,12.88
2023-11-18T06:21:25.840Z,12.43
2023-11-18T06:23:56.339Z,13.69
2023-11-18T06:26:25.567Z,13.48
2023-11-18T06:28:53.980Z,13.25
2023-11-18T06:31:22.015Z,13.90
2023-11-18T06:33:50.975Z,12.84
2023-11-18T06:36:19.196Z,12.01
2023-11-18T06:38:50.911Z,13.19
2023-11-18T06:41:20.035Z,13.04
2023-11-18T06:43:58.583Z,12.58
2023-11-18T06:46:27.984Z,11.91
2023-11-18T06:48:58.368Z,9.85
2023-11-18T06:51:29.038Z,11.64
2023-11-18T06:53:58.782Z,11.38
2023-11-18T06:56:26.921Z,12.47
2023-11-18T06:58:54.724Z,12.79
2023-11-18T07:01:23.985Z,12.82
2023-11-18T07:03:54.311Z,13.55
2023-11-18T07:06:24.133Z,12.81
2023-11-18T07:08:51.883Z,12.99
2023-11-18T07:11:22.008Z,13.40
2023-11-18T07:13:50.231Z,13.19
2023-11-18T07:16:19.045Z,12.73
2023-11-18T07:18:46.847Z,13.01
2023-11-18T07:21:16.010Z,12.14
2023-11-18T07:23:44.447Z,11.65
2023-11-18T07:26:13.083Z,11.84
2023-11-18T07:28:42.310Z,12.85
2023-11-18T07:31:10.348Z,13.76
2023-11-18T07:33:40.369Z,12.14
2023-11-18T07:38:41.025Z,13.24
2023-11-18T07:41:09.788Z,14.29
2023-11-18T07:43:39.124Z,12.80
2023-11-18T07:46:09.119Z,12.17
2023-11-18T07:48:38.031Z,13.34
2023-11-18T07:51:08.014Z,12.56
2023-11-18T07:53:39.054Z,12.44
2023-11-18T07:56:09.076Z,12.97
2023-11-18T07:58:39.094Z,13.61
2023-11-18T08:01:10.114Z,14.10
2023-11-18T08:03:39.159Z,14.03
2023-11-18T08:06:08.244Z,13.82
2023-11-18T08:08:38.057Z,14.38
2023-11-18T08:11:06.852Z,13.98
2023-11-18T08:13:38.106Z,15.05
2023-11-18T08:16:09.649Z,13.57
2023-11-18T08:18:38.370Z,13.54
2023-11-18T08:21:08.192Z,14.58
2023-11-18T08:23:37.239Z,15.38
2023-11-18T08:26:06.787Z,14.16
2023-11-18T08:28:35.120Z,14.41
2023-11-18T08:31:02.988Z,13.96
2023-11-18T08:33:32.178Z,14.97
2023-11-18T08:36:02.093Z,15.73
2023-11-18T08:38:30.688Z,16.08
2023-11-18T08:40:59.114Z,15.81
2023-11-18T08:43:29.750Z,15.52
2023-11-18T08:45:58.176Z,15.45
2023-11-18T08:48:25.856Z,15.74
2023-11-18T08:50:55.216Z,16.43
2023-11-18T08:53:27.470Z,15.41
2023-11-18T08:55:56.507Z,14.95
2023-11-18T08:58:29.995Z,14.62
2023-11-18T09:01:07.520Z,15.79
2023-11-18T09:03:44.088Z,14.66
2023-11-18T09:06:20.408Z,14.56
2023-11-18T09:08:54.149Z,13.92
2023-11-18T09:11:25.237Z,14.52
2023-11-18T09:13:55.118Z,15.37
2023-11-18T09:16:23.510Z,15.34
2023-11-18T09:18:52.357Z,16.03
2023-11-18T09:21:26.241Z,15.00
2023-11-18T09:23:55.145Z,14.95
2023-11-18T09:26:23.025Z,14.76
2023-11-18T09:28:54.284Z,14.85
2023-11-18T09:31:23.081Z,14.46
2023-11-18T09:33:55.133Z,14.61
2023-11-18T09:36:24.469Z,13.90
2023-11-18T09:38:53.573Z,15.65
2023-11-18T09:41:22.233Z,16.29
2023-11-18T09:43:54.283Z,15.61
2023-11-18T09:46:25.874Z,15.60
2023-11-18T09:49:00.590Z,16.64
2023-11-18T09:51:34.185Z,16.55
2023-11-18T09:54:02.771Z,16.63
2023-11-18T09:56:39.849Z,18.05
2023-11-18T09:59:17.218Z,16.26
2023-11-18T10:01:48.370Z,17.55
2023-11-18T10:04:19.171Z,17.54
2023-11-18T10:06:54.193Z,17.74
2023-11-18T10:09:29.439Z,16.28
2023-11-18T10:12:07.240Z,16.63
2023-11-18T10:14:35.656Z,15.35
2023-11-18T10:17:08.411Z,17.19
2023-11-18T10:19:52.204Z,16.63
2023-11-18T10:22:28.231Z,16.86
2023-11-18T10:24:56.694Z,17.79
2023-11-18T10:27:28.422Z,16.83
2023-11-18T10:29:59.728Z,17.03
2023-11-18T10:32:29.730Z,17.56
2023-11-18T10:34:58.422Z,17.34
2023-11-18T10:37:33.048Z,16.65
2023-11-18T10:40:07.012Z,16.54
2023-11-18T10:42:35.507Z,17.52
2023-11-18T10:45:04.585Z,17.29
2023-11-18T10:47:37.406Z,17.96
2023-11-18T10:50:06.082Z,16.21
2023-11-18T10:52:42.811Z,17.19
2023-11-18T10:55:13.607Z,17.04
2023-11-18T10:57:44.048Z,16.22
2023-11-18T11:00:16.027Z,16.89
2023-11-18T11:02:45.387Z,16.09
2023-11-18T11:05:19.837Z,17.82
2023-11-18T11:07:52.341Z,16.94
2023-11-18T11:10:26.658Z,16.70
2023-11-18T11:12:59.300Z,16.50
2023-11-18T11:15:41.996Z,16.82
2023-11-18T11:18:24.749Z,18.11
2023-11-18T11:21:04.676Z,18.04
2023-11-18T11:23:45.320Z,19.20
2023-11-18T11:26:21.460Z,18.73
2023-11-18T11:28:55.362Z,17.72
2023-11-18T11:31:25.375Z,18.01
2023-11-18T11:34:00.380Z,19.55
2023-11-18T11:36:34.867Z,19.32
2023-11-18T11:39:04.445Z,18.97
2023-11-18T11:41:35.324Z,18.90
2023-11-18T11:44:03.103Z,18.15
2023-11-18T11:46:36.450Z,17.96
2023-11-18T11:49:09.833Z,18.55
2023-11-18T11:51:42.843Z,18.77
2023-11-18T11:54:17.347Z,19.06
2023-11-18T11:56:48.263Z,18.40
2023-11-18T11:59:18.429Z,18.44
2023-11-18T12:01:48.495Z,17.35
2023-11-18T12:04:24.414Z,17.88
2023-11-18T12:07:05.770Z,16.89
2023-11-18T12:09:45.393Z,17.29
2023-11-18T12:12:20.279Z,18.01
2023-11-18T12:14:54.400Z,17.77
2023-11-18T12:17:25.617Z,18.42
2023-11-18T12:20:00.782Z,18.16
2023-11-18T12:22:31.638Z,20.07
2023-11-18T12:25:55.602Z,19.08
2023-11-18T12:28:28.894Z,18.64
2023-11-18T12:31:07.384Z,18.89
2023-11-18T12:34:03.944Z,18.42
2023-11-18T12:36:59.379Z,17.17
2023-11-18T12:40:14.633Z,18.66
2023-11-18T12:43:01.019Z,18.28
2023-11-18T12:45:46.458Z,18.60
2023-11-18T12:48:17.148Z,17.09
2023-11-18T12:50:47.546Z,17.90
2023-11-18T12:53:19.391Z,17.89
2023-11-18T12:55:49.476Z,18.00
2023-11-18T12:58:19.336Z,17.41
2023-11-18T13:00:48.431Z,19.36
2023-11-18T13:03:19.169Z,18.82
2023-11-18T13:05:47.105Z,19.80
2023-11-18T13:08:17.421Z,19.92
2023-11-18T13:10:46.004Z,19.06
2023-11-18T13:13:19.553Z,18.45
2023-11-18T13:15:51.652Z,17.38
2023-11-18T13:18:21.521Z,19.19
2023-11-18T13:20:59.641Z,18.91
2023-11-18T13:23:28.518Z,17.18
2023-11-18T13:25:57.715Z,16.96
2023-11-18T13:28:27.468Z,17.85
2023-11-18T13:30:56.563Z,17.71
2023-11-18T13:33:25.588Z,16.04
2023-11-18T13:35:54.157Z,17.58
2023-11-18T13:38:21.842Z,17.50
2023-11-18T13:40:50.532Z,17.51
2023-11-18T13:43:18.235Z,17.76
2023-11-18T13:45:47.467Z,17.39
2023-11-18T13:48:18.727Z,16.82
2023-11-18T13:50:47.619Z,17.27
2023-11-18T13:53:16.714Z,16.88
2023-11-18T13:55:45.488Z,17.91
2023-11-18T13:58:13.409Z,17.86
2023-11-18T14:00:43.497Z,18.68
2023-11-18T14:03:13.023Z,15.71
2023-11-18T14:05:45.285Z,18.58
2023-11-18T14:08:20.864Z,16.07
2023-11-18T14:10:58.461Z,17.45
2023-11-18T14:13:32.092Z,18.09
2023-11-18T14:16:01.567Z,16.14
2023-11-18T14:18:29.603Z,16.87
2023-11-18T14:20:59.540Z,16.44
2023-11-18T14:23:27.387Z,16.72
2023-11-18T14:25:55.463Z,16.30
2023-11-18T14:28:27.636Z,15.75
2023-11-18T14:30:55.452Z,15.97
2023-11-18T14:33:23.156Z,16.34
2023-11-18T14:35:51.542Z,15.85
2023-11-18T14:38:20.847Z,15.64
2023-11-18T14:40:49.777Z,16.97
2023-11-18T14:43:17.575Z,16.73
2023-11-18T14:45:45.528Z,16.78
2023-11-18T14:48:14.443Z,15.73
2023-11-18T14:50:42.440Z,15.43
2023-11-18T14:53:10.548Z,14.92
2023-11-18T14:55:40.460Z,16.10
2023-11-18T14:58:08.374Z,14.69
2023-11-18T15:00:36.577Z,16.38
2023-11-18T15:03:04.450Z,17.53
2023-11-18T15:05:32.442Z,17.06
2023-11-18T15:08:02.584Z,17.35
2023-11-18T15:10:30.438Z,16.54
2023-11-18T15:13:02.319Z,16.29
2023-11-18T15:15:36.079Z,15.78
2023-11-18T15:18:06.073Z,14.59
2023-11-18T15:20:35.684Z,15.67
2023-11-18T15:23:03.987Z,16.37
2023-11-18T15:25:32.614Z,15.61
2023-11-18T15:28:02.553Z,14.03
2023-11-18T15:30:30.325Z,15.88
2023-11-18T15:32:58.622Z,15.36
2023-11-18T15:35:26.448Z,14.43
2023-11-18T15:37:54.644Z,15.94
2023-11-18T15:40:26.378Z,15.93
2023-11-18T15:42:55.617Z,16.77
2023-11-18T15:45:25.884Z,14.78
2023-11-18T15:47:54.663Z,14.33
2023-11-18T15:50:22.799Z,15.39
2023-11-18T15:52:53.690Z,15.35
2023-11-18T15:55:22.240Z,15.64
2023-11-18T15:57:54.024Z,15.25
2023-11-18T16:00:25.844Z,15.13
2023-11-18T16:02:58.416Z,15.31
2023-11-18T16:05:29.620Z,15.77
2023-11-18T16:07:58.685Z,14.10
2023-11-18T16:10:28.866Z,15.42
2023-11-18T16:12:59.671Z,14.42
2023-11-18T16:15:29.611Z,14.51
2023-11-18T16:17:58.667Z,14.80
2023-11-18T16:20:28.793Z,14.23
2023-11-18T16:22:58.470Z,14.36
2023-11-18T16:25:29.049Z,15.79
2023-11-18T16:27:58.267Z,14.89
2023-11-18T16:30:28.380Z,14.83
2023-11-18T16:32:58.816Z,14.02
2023-11-18T16:35:27.833Z,14.51
2023-11-18T16:37:56.720Z,14.77
2023-11-18T16:40:25.786Z,15.96
2023-11-18T16:42:57.263Z,16.33
2023-11-18T16:45:26.263Z,16.18
2023-11-18T16:47:56.221Z,15.70
2023-11-18T16:50:28.191Z,17.06
2023-11-18T16:52:57.348Z,15.09
2023-11-18T16:55:26.683Z,16.50
2023-11-18T16:57:55.767Z,14.91
2023-11-18T17:00:24.937Z,15.92
2023-11-18T17:02:59.442Z,16.61
2023-11-18T17:05:31.037Z,15.54
2023-11-18T17:08:01.753Z,15.47
2023-11-18T17:10:30.284Z,15.99
2023-11-18T17:12:59.067Z,15.72
2023-11-18T17:15:27.719Z,15.51
2023-11-18T17:18:02.002Z,16.69
2023-11-18T17:20:32.890Z,15.25
2023-11-18T17:23:00.685Z,14.47
2023-11-18T17:25:28.794Z,15.52
2023-11-18T17:27:56.751Z,15.46
2023-11-18T17:30:24.504Z,16.06
2023-11-18T17:32:54.467Z,14.63
2023-11-18T17:35:23.459Z,15.22
2023-11-18T17:37:52.617Z,15.74
2023-11-18T17:40:23.121Z,16.54
2023-11-18T17:42:54.353Z,14.87
2023-11-18T17:45:22.760Z,15.71
2023-11-18T17:47:50.551Z,16.92
2023-11-18T17:50:19.869Z,16.54
2023-11-18T17:52:48.703Z,15.42
2023-11-18T17:55:17.774Z,16.22
2023-11-18T17:57:46.772Z,17.72
2023-11-18T18:00:20.962Z,14.77
2023-11-18T18:02:50.962Z,15.36
2023-11-18T18:05:19.200Z,17.17
2023-11-18T18:07:47.770Z,16.38
2023-11-18T18:10:17.466Z,15.94
2023-11-18T18:12:48.106Z,15.73
2023-11-18T18:15:16.280Z,15.98
2023-11-18T18:17:44.918Z,16.82
2023-11-18T18:20:14.819Z,16.21
2023-11-18T18:22:43.631Z,17.43
2023-11-18T18:25:13.874Z,15.55
2023-11-18T18:27:43.615Z,16.58
2023-11-18T18:30:13.834Z,16.40
2023-11-18T18:32:41.774Z,18.26
2023-11-18T18:35:11.707Z,16.51
2023-11-18T18:37:39.471Z,17.09
2023-11-18T18:40:08.848Z,18.01
2023-11-18T18:42:36.521Z,16.76
2023-11-18T18:45:07.821Z,14.81
2023-11-18T18:47:35.747Z,15.18
2023-11-18T18:50:03.897Z,16.80
2023-11-18T18:52:31.580Z,15.58
2023-11-18T18:54:59.980Z,15.48
2023-11-18T18:57:27.652Z,16.93
2023-11-18T18:59:55.547Z,16.35
2023-11-18T19:02:26.102Z,16.02
2023-11-18T19:04:53.824Z,17.04
2023-11-18T19:07:22.845Z,16.61
2023-11-18T19:09:51.142Z,17.09
2023-11-18T19:12:18.870Z,16.59
2023-11-18T19:14:46.603Z,15.98
2023-11-18T19:17:15.076Z,16.04
2023-11-18T19:19:44.926Z,16.79
2023-11-18T19:22:13.869Z,17.17
2023-11-18T19:24:43.553Z,16.21
2023-11-18T19:27:13.156Z,16.03
2023-11-18T19:29:43.050Z,16.64
2023-11-18T19:32:12.911Z,16.25
2023-11-18T19:34:40.617Z,16.37
2023-11-18T19:37:12.946Z,17.68
2023-11-18T19:39:41.472Z,16.13
2023-11-18T19:42:10.173Z,16.70
2023-11-18T19:44:39.112Z,15.56
2023-11-18T19:47:07.996Z,15.50
2023-11-18T19:49:58.938Z,17.95
2023-11-18T19:52:28.567Z,16.54
2023-11-18T19:54:56.944Z,17.87
2023-11-18T19:57:24.771Z,17.08
2023-11-18T19:59:53.982Z,16.97
2023-11-18T20:02:23.100Z,16.65
2023-11-18T20:04:51.405Z,15.41
2023-11-18T20:07:19.938Z,16.27
2023-11-18T20:09:49.292Z,15.35
2023-11-18T20:12:17.967Z,15.95
2023-11-18T20:14:45.844Z,15.83
2023-11-18T20:17:15.988Z,16.56
2023-11-18T20:19:43.989Z,16.73
2023-11-18T20:22:11.791Z,16.12
2023-11-18T20:24:40.227Z,16.19
2023-11-18T20:27:10.187Z,14.73
2023-11-18T20:29:37.973Z,16.32
2023-11-18T20:32:06.783Z,15.15
2023-11-18T20:34:39.037Z,16.21
2023-11-18T20:37:07.169Z,15.72
2023-11-18T20:39:55.995Z,16.87
2023-11-18T20:42:25.497Z,16.44
2023-11-18T20:44:54.062Z,15.44
2023-11-18T20:47:23.619Z,16.11
2023-11-18T20:49:52.062Z,16.81
2023-11-18T20:52:19.838Z,16.35
2023-11-18T20:54:47.668Z,16.33
2023-11-18T20:57:17.041Z,15.80
2023-11-18T20:59:46.511Z,16.57
2023-11-18T21:02:18.084Z,16.86
2023-11-18T21:04:46.034Z,15.28
2023-11-18T21:07:13.950Z,16.79
2023-11-18T21:09:43.033Z,16.43
2023-11-18T21:12:18.408Z,16.91
2023-11-18T21:14:50.498Z,16.09
2023-11-18T21:17:20.302Z,17.11
2023-11-18T21:19:48.436Z,16.61
2023-11-18T21:22:20.027Z,15.56
2023-11-18T21:24:47.801Z,16.59
2023-11-18T21:27:16.107Z,15.46
2023-11-18T21:29:44.214Z,16.43
2023-11-18T21:32:14.103Z,16.60
2023-11-18T21:34:43.931Z,19.04
2023-11-18T21:37:12.399Z,16.75
2023-11-18T21:39:40.920Z,17.26
2023-11-18T21:42:09.515Z,15.84
2023-11-18T21:44:38.206Z,17.32
2023-11-18T21:47:07.083Z,16.90
2023-11-18T21:49:36.135Z,17.55
2023-11-18T21:52:04.063Z,17.76
2023-11-18T21:54:32.108Z,17.64
2023-11-18T21:57:00.061Z,16.77
2023-11-18T21:59:27.968Z,16.32
2023-11-18T22:01:57.080Z,16.98
2023-11-18T22:04:24.836Z,17.42
2023-11-18T22:06:55.328Z,17.84
2023-11-18T22:09:24.704Z,17.46
2023-11-18T22:11:53.109Z,17.49
2023-11-18T22:14:20.790Z,17.36
2023-11-18T22:16:49.088Z,16.89
2023-11-18T22:19:17.193Z,17.71
2023-11-18T22:21:44.934Z,16.63
2023-11-18T22:24:16.129Z,17.99
2023-11-18T22:26:44.444Z,18.13
2023-11-18T22:29:13.134Z,17.72
2023-11-18T22:31:40.875Z,17.01
2023-11-18T22:34:09.117Z,16.57
2023-11-18T22:36:36.804Z,18.65
2023-11-18T22:39:05.120Z,17.78
2023-11-18T22:41:34.192Z,17.39
2023-11-18T22:44:02.143Z,16.82
2023-11-18T22:46:29.837Z,17.86
2023-11-18T22:48:58.391Z,18.61
2023-11-18T22:51:26.282Z,18.24
2023-11-18T22:53:56.168Z,17.67
2023-11-18T22:56:24.812Z,16.81
2023-11-18T22:58:55.141Z,17.92
2023-11-18T23:01:24.178Z,17.66
2023-11-18T23:03:53.319Z,19.09
2023-11-18T23:06:25.028Z,18.91
2023-11-18T23:08:55.189Z,17.71
2023-11-18T23:11:23.593Z,18.76
2023-11-18T23:13:54.160Z,19.46
2023-11-18T23:16:24.257Z,18.47
2023-11-18T23:18:54.213Z,17.96
2023-11-18T23:21:21.972Z,17.67
2023-11-18T23:23:53.172Z,17.54
2023-11-18T23:26:21.411Z,16.66
2023-11-18T23:28:49.445Z,17.25
2023-11-18T23:31:17.187Z,18.49
2023-11-18T23:33:47.184Z,18.93
2023-11-18T23:36:17.154Z,17.74
2023-11-18T23:38:49.185Z,17.58
2023-11-18T23:41:17.757Z,17.76
2023-11-18T23:43:46.346Z,19.29
2023-11-18T23:46:14.582Z,19.41
2023-11-18T23:48:43.246Z,17.85
2023-11-18T23:51:13.034Z,19.77
2023-11-18T23:53:40.720Z,18.85
2023-11-18T23:56:10.220Z,19.16
2023-11-18T23:58:37.960Z,18.61
